^^
Datos históricos de la estación: Murcia-Puente Tocinos
Diario Informe para Febrero 25, 2019 Unidades:  Ambas    Ingés   Métrico
Diario Semanal Mensual Anual
  Máxima: Mínima: Promedio:
Temperatura: 86 °F /  30 °C 71.2 °F /  21.8 °C 78.3 °F /  25.7 °C
Punto de rocio: 69.4 °F /  20.8 °C 62.8 °F /  17.1 °C 66.9 °F /  19.4 °C
Humedad: 84% 46.6% 69%
Velocidad viento: 10.7mph /  17.2km/h - 4.5mph /  7.3km/h
Racha viento: 19mph /  30.6km/h - -
Viento- - ESE
Presión: 30 in /  1016.6 hPa 29.9 in /  1013.6 hPa -
Precipitación: 0 in /  0.0 mm    
 
 
Tabla de datos para Febrero 25, 2019
Hora Temperatura Punto de rocio Presión Viento Velocidad viento Racha viento Humedad Intensidad lluvia(por hora) Nubes
00:04 76.5 °F /  24.7 °C 68.7 °F /  20.4 °C 30in /  1016.5hPa NE 4mph /  6.5km/h 6.9mph /  11.1km/h 77% 0in /  0.0mm
00:09 76.5 °F /  24.7 °C 68.9 °F /  20.5 °C 30in /  1016.5hPa NE 4.1mph /  6.6km/h 7mph /  11.3km/h 77.4% 0in /  0.0mm
00:14 76.5 °F /  24.7 °C 69.1 °F /  20.6 °C 30in /  1016.5hPa NE 4.3mph /  6.9km/h 6mph /  9.7km/h 78% 0in /  0.0mm
00:19 76.5 °F /  24.7 °C 69.1 °F /  20.6 °C 30in /  1016.5hPa NNE 4mph /  6.5km/h 5mph /  8km/h 78% 0in /  0.0mm
00:24 76.5 °F /  24.7 °C 69.1 °F /  20.6 °C 30in /  1016.5hPa NE 3.1mph /  5km/h 5mph /  8km/h 78% 0in /  0.0mm
00:29 76.5 °F /  24.7 °C 69.1 °F /  20.6 °C 30in /  1016.5hPa NE 2.8mph /  4.5km/h 5mph /  8km/h 78% 0in /  0.0mm
00:34 76.3 °F /  24.6 °C 68.9 °F /  20.5 °C 30in /  1016.5hPa NE 2mph /  3.2km/h 5mph /  8km/h 78% 0in /  0.0mm
00:39 76.3 °F /  24.6 °C 69.1 °F /  20.6 °C 30in /  1016.5hPa NE 2mph /  3.2km/h 4.6mph /  7.4km/h 78.7% 0in /  0.0mm
00:44 76.3 °F /  24.6 °C 69.3 °F /  20.7 °C 30in /  1016.5hPa ENE 2mph /  3.2km/h 5mph /  8km/h 79% 0in /  0.0mm
00:49 76.3 °F /  24.6 °C 69.3 °F /  20.7 °C 30in /  1016.6hPa ENE 1.9mph /  3km/h 5mph /  8km/h 79% 0in /  0.0mm
00:54 76.3 °F /  24.6 °C 69.3 °F /  20.7 °C 30in /  1016.6hPa ENE 1.4mph /  2.2km/h 4mph /  6.4km/h 79% 0in /  0.0mm
00:59 76.1 °F /  24.5 °C 69.1 °F /  20.6 °C 30in /  1016.6hPa ENE 1mph /  1.6km/h 2.3mph /  3.7km/h 79% 0in /  0.0mm
01:04 76.1 °F /  24.5 °C 69.1 °F /  20.6 °C 30in /  1016.6hPa Calm   2.9mph /  4.7km/h 79% 0in /  0.0mm
01:09 75.9 °F /  24.4 °C 68.9 °F /  20.5 °C 30in /  1016.6hPa ENE 0.4mph /  0.7km/h 3mph /  4.8km/h 79% 0in /  0.0mm
01:14 75.9 °F /  24.4 °C 68.9 °F /  20.5 °C 30in /  1016.6hPa ENE 1.8mph /  2.9km/h 3.5mph /  5.6km/h 79% 0in /  0.0mm
01:19 75.9 °F /  24.4 °C 68.9 °F /  20.5 °C 30in /  1016.6hPa ENE 1.7mph /  2.7km/h 3mph /  4.8km/h 79% 0in /  0.0mm
01:24 75.9 °F /  24.4 °C 68.9 °F /  20.5 °C 30in /  1016.3hPa ENE 1.4mph /  2.2km/h 2mph /  3.2km/h 79% 0in /  0.0mm
01:29 75.7 °F /  24.3 °C 68.9 °F /  20.5 °C 30in /  1016.3hPa ENE 1.1mph /  1.7km/h 2.4mph /  3.9km/h 79% 0in /  0.0mm
01:34 75.7 °F /  24.3 °C 68.7 °F /  20.4 °C 30in /  1016.4hPa Calm   2mph /  3.2km/h 79% 0in /  0.0mm
01:39 75.7 °F /  24.3 °C 68.9 °F /  20.5 °C 30in /  1016.4hPa Calm     79.2% 0in /  0.0mm
01:44 75.7 °F /  24.3 °C 69.1 °F /  20.6 °C 30in /  1016.4hPa Calm     79.7% 0in /  0.0mm
01:49 75.7 °F /  24.3 °C 68.7 °F /  20.4 °C 30in /  1016.4hPa Calm     79% 0in /  0.0mm
01:54 75.7 °F /  24.3 °C 68.7 °F /  20.4 °C 30in /  1016.3hPa Calm     79% 0in /  0.0mm
01:59 75.6 °F /  24.2 °C 68.9 °F /  20.5 °C 30in /  1016.3hPa Calm     79.3% 0in /  0.0mm
02:04 75.6 °F /  24.2 °C 68.9 °F /  20.5 °C 30in /  1016.3hPa Calm     80% 0in /  0.0mm
02:09 75.4 °F /  24.1 °C 68.7 °F /  20.4 °C 30in /  1016.1hPa Calm   3.1mph /  5km/h 80% 0in /  0.0mm
02:14 75.4 °F /  24.1 °C 68.7 °F /  20.4 °C 30in /  1016.1hPa Calm   3.6mph /  5.8km/h 80% 0in /  0.0mm
02:19 75.2 °F /  24 °C 68.5 °F /  20.3 °C 30in /  1016.1hPa Calm   4mph /  6.4km/h 80% 0in /  0.0mm
02:24 75 °F /  23.9 °C 68.4 °F /  20.2 °C 30in /  1016.1hPa Calm     80% 0in /  0.0mm
02:29 74.8 °F /  23.8 °C 68.4 °F /  20.2 °C 30in /  1016.1hPa Calm   1.4mph /  2.3km/h 80% 0in /  0.0mm
02:34 74.8 °F /  23.8 °C 68.4 °F /  20.2 °C 30in /  1016.1hPa Calm   1.2mph /  1.9km/h 80% 0in /  0.0mm
02:39 74.7 °F /  23.7 °C 68.2 °F /  20.1 °C 30in /  1015.8hPa Calm   1mph /  1.6km/h 80% 0in /  0.0mm
02:44 74.7 °F /  23.7 °C 68.4 °F /  20.2 °C 30in /  1015.8hPa Calm     80.9% 0in /  0.0mm
02:49 74.7 °F /  23.7 °C 68.4 °F /  20.2 °C 30in /  1015.9hPa Calm     81% 0in /  0.0mm
02:54 74.5 °F /  23.6 °C 68.4 °F /  20.2 °C 30in /  1015.9hPa Calm     81% 0in /  0.0mm
02:59 74.5 °F /  23.6 °C 68.4 °F /  20.2 °C 30in /  1015.9hPa Calm     81% 0in /  0.0mm
03:04 74.5 °F /  23.6 °C 68.4 °F /  20.2 °C 30in /  1015.9hPa Calm     81% 0in /  0.0mm
03:09 74.5 °F /  23.6 °C 68.2 °F /  20.1 °C 30in /  1015.8hPa Calm   2.9mph /  4.7km/h 81% 0in /  0.0mm
03:14 74.3 °F /  23.5 °C 68.2 °F /  20.1 °C 30in /  1015.8hPa Calm   3.5mph /  5.6km/h 81% 0in /  0.0mm
03:19 74.3 °F /  23.5 °C 68 °F /  20 °C 30in /  1015.8hPa Este 0.4mph /  0.7km/h 3.6mph /  5.8km/h 81% 0in /  0.0mm
03:24 74.1 °F /  23.4 °C 67.8 °F /  19.9 °C 30in /  1015.8hPa Este 1.8mph /  2.9km/h 4.6mph /  7.4km/h 81% 0in /  0.0mm
03:29 73.9 °F /  23.3 °C 67.8 °F /  19.9 °C 30in /  1015.8hPa Este 1.8mph /  2.9km/h 5mph /  8km/h 81% 0in /  0.0mm
03:34 73.8 °F /  23.2 °C 67.8 °F /  19.9 °C 30in /  1015.8hPa ESE 1.8mph /  2.9km/h 5mph /  8km/h 81.9% 0in /  0.0mm
03:39 73.8 °F /  23.2 °C 67.8 °F /  19.9 °C 30in /  1015.8hPa ESE 1.8mph /  2.9km/h 4mph /  6.4km/h 82% 0in /  0.0mm
03:44 73.6 °F /  23.1 °C 67.8 °F /  19.9 °C 30in /  1015.8hPa ESE 1.8mph /  2.9km/h 2.9mph /  4.7km/h 82% 0in /  0.0mm
03:49 73.6 °F /  23.1 °C 67.6 °F /  19.8 °C 30in /  1015.9hPa Este 1.8mph /  2.9km/h 3.6mph /  5.8km/h 82% 0in /  0.0mm
03:54 73.4 °F /  23 °C 67.6 °F /  19.8 °C 30in /  1015.9hPa Este 1.8mph /  2.9km/h 4.7mph /  7.6km/h 82.3% 0in /  0.0mm
03:59 73 °F /  22.8 °C 67.6 °F /  19.8 °C 30in /  1015.9hPa ESE 2.2mph /  3.5km/h 5mph /  8km/h 83% 0in /  0.0mm
04:04 73 °F /  22.8 °C 67.6 °F /  19.8 °C 30in /  1016.0hPa ESE 3.1mph /  5km/h 5mph /  8km/h 83% 0in /  0.0mm
04:09 72.9 °F /  22.7 °C 67.5 °F /  19.7 °C 30in /  1016.0hPa SE 3mph /  4.9km/h 5mph /  8km/h 83% 0in /  0.0mm
04:14 72.9 °F /  22.7 °C 67.6 °F /  19.8 °C 30in /  1016.0hPa SSE 2.9mph /  4.7km/h 5mph /  8km/h 83.5% 0in /  0.0mm
04:19 73 °F /  22.8 °C 67.8 °F /  19.9 °C 30in /  1016.0hPa SSE 2.9mph /  4.7km/h 5.9mph /  9.5km/h 84% 0in /  0.0mm
04:24 73 °F /  22.8 °C 67.6 °F /  19.8 °C 30in /  1015.9hPa Sur 2.9mph /  4.7km/h 6mph /  9.7km/h 83% 0in /  0.0mm
04:29 73 °F /  22.8 °C 67.6 °F /  19.8 °C 30in /  1015.9hPa SSO 3mph /  4.9km/h 5.2mph /  8.4km/h 82.7% 0in /  0.0mm
04:34 73.2 °F /  22.9 °C 67.3 °F /  19.6 °C 30in /  1015.9hPa SSO 3.6mph /  5.8km/h 5.8mph /  9.3km/h 81.8% 0in /  0.0mm
04:39 73.4 °F /  23 °C 67.1 °F /  19.5 °C 30in /  1015.9hPa SSO 3.6mph /  5.8km/h 6.2mph /  10km/h 81% 0in /  0.0mm
04:44 73.6 °F /  23.1 °C 67.1 °F /  19.5 °C 30in /  1015.9hPa SSO 3.6mph /  5.8km/h 6mph /  9.7km/h 80.4% 0in /  0.0mm
04:49 73.6 °F /  23.1 °C 66.9 °F /  19.4 °C 30in /  1015.9hPa SSO 3.5mph /  5.6km/h 5.2mph /  8.4km/h 80% 0in /  0.0mm
04:54 73.6 °F /  23.1 °C 66.9 °F /  19.4 °C 30in /  1015.8hPa SSO 3.1mph /  5km/h 5.8mph /  9.3km/h 80% 0in /  0.0mm
04:59 73.6 °F /  23.1 °C 66.9 °F /  19.4 °C 30in /  1015.8hPa SSO 3mph /  4.9km/h 6mph /  9.7km/h 80% 0in /  0.0mm
05:04 73.6 °F /  23.1 °C 66.9 °F /  19.4 °C 30in /  1015.8hPa SSO 2.9mph /  4.6km/h 3mph /  4.8km/h 80% 0in /  0.0mm
05:09 73.6 °F /  23.1 °C 66.9 °F /  19.4 °C 30in /  1015.7hPa SO 2.2mph /  3.5km/h 2mph /  3.2km/h 80% 0in /  0.0mm
05:14 73.6 °F /  23.1 °C 66.9 °F /  19.4 °C 30in /  1015.7hPa Calm     80% 0in /  0.0mm
05:19 73.6 °F /  23.1 °C 66.9 °F /  19.4 °C 30in /  1015.7hPa Calm     80% 0in /  0.0mm
05:24 73.4 °F /  23 °C 66.7 °F /  19.3 °C 30in /  1015.6hPa Calm     80% 0in /  0.0mm
05:29 73 °F /  22.8 °C 66.9 °F /  19.4 °C 30in /  1015.6hPa Calm     81% 0in /  0.0mm
05:34 73 °F /  22.8 °C 66.7 °F /  19.3 °C 30in /  1015.6hPa Calm     81% 0in /  0.0mm
05:39 72.9 °F /  22.7 °C 66.9 °F /  19.4 °C 30in /  1015.5hPa Calm     82% 0in /  0.0mm
05:44 72.7 °F /  22.6 °C 66.9 °F /  19.4 °C 30in /  1015.5hPa Calm     82% 0in /  0.0mm
05:49 72.7 °F /  22.6 °C 66.9 °F /  19.4 °C 30in /  1015.5hPa Calm     82.1% 0in /  0.0mm
05:54 72.5 °F /  22.5 °C 66.9 °F /  19.4 °C 30in /  1015.5hPa Calm     83% 0in /  0.0mm
05:59 72.3 °F /  22.4 °C 66.9 °F /  19.4 °C 30in /  1015.5hPa Calm     83% 0in /  0.0mm
06:04 72.3 °F /  22.4 °C 66.9 °F /  19.4 °C 30in /  1015.5hPa Calm     83% 0in /  0.0mm
06:09 72.3 °F /  22.4 °C 66.9 °F /  19.4 °C 30in /  1015.5hPa Calm     83% 0in /  0.0mm
06:14 72.1 °F /  22.3 °C 66.7 °F /  19.3 °C 30in /  1015.5hPa Calm     83% 0in /  0.0mm
06:19 72.1 °F /  22.3 °C 66.9 °F /  19.4 °C 30in /  1015.5hPa Calm     83.6% 0in /  0.0mm
06:24 72 °F /  22.2 °C 66.9 °F /  19.4 °C 30in /  1015.3hPa Calm     84% 0in /  0.0mm
06:29 72 °F /  22.2 °C 66.9 °F /  19.4 °C 30in /  1015.3hPa Calm     84% 0in /  0.0mm
06:34 71.8 °F /  22.1 °C 66.7 °F /  19.3 °C 30in /  1015.4hPa Calm     84% 0in /  0.0mm
06:39 71.8 °F /  22.1 °C 66.7 °F /  19.3 °C 30in /  1015.4hPa Calm     84% 0in /  0.0mm
06:44 71.6 °F /  22 °C 66.6 °F /  19.2 °C 30in /  1015.4hPa Calm     84% 0in /  0.0mm
06:49 71.6 °F /  22 °C 66.6 °F /  19.2 °C 30in /  1015.5hPa Calm     84% 0in /  0.0mm
06:54 71.4 °F /  21.9 °C 66.4 °F /  19.1 °C 30in /  1015.5hPa Calm   3.6mph /  5.8km/h 84% 0in /  0.0mm
06:59 71.4 °F /  21.9 °C 66.4 °F /  19.1 °C 30in /  1015.5hPa SSE 0.6mph /  1km/h 4.7mph /  7.6km/h 84% 0in /  0.0mm
07:04 71.4 °F /  21.9 °C 66.4 °F /  19.1 °C 30in /  1015.6hPa SSE 2mph /  3.2km/h 5.2mph /  8.4km/h 84% 0in /  0.0mm
07:09 71.4 °F /  21.9 °C 66.2 °F /  19 °C 30in /  1015.6hPa Sur 2.4mph /  3.8km/h 5.2mph /  8.4km/h 83.6% 0in /  0.0mm
07:14 71.4 °F /  21.9 °C 66 °F /  18.9 °C 30in /  1015.6hPa SSO 3.6mph /  5.8km/h 6.9mph /  11.1km/h 83% 0in /  0.0mm
07:19 71.4 °F /  21.9 °C 66 °F /  18.9 °C 30in /  1015.6hPa SSO 3.8mph /  6.1km/h 7mph /  11.3km/h 83% 0in /  0.0mm
07:24 71.2 °F /  21.8 °C 65.8 °F /  18.8 °C 30in /  1015.6hPa SSO 4.3mph /  6.9km/h 7mph /  11.3km/h 83% 0in /  0.0mm
07:29 71.2 °F /  21.8 °C 65.8 °F /  18.8 °C 30in /  1015.6hPa SSO 4.4mph /  7.1km/h 7mph /  11.3km/h 83% 0in /  0.0mm
07:34 71.2 °F /  21.8 °C 65.8 °F /  18.8 °C 30in /  1015.7hPa SSO 4.7mph /  7.6km/h 7mph /  11.3km/h 83% 0in /  0.0mm
07:39 71.2 °F /  21.8 °C 65.8 °F /  18.8 °C 30in /  1015.7hPa SO 4.6mph /  7.4km/h 7.6mph /  12.2km/h 83% 0in /  0.0mm
07:44 71.4 °F /  21.9 °C 66 °F /  18.9 °C 30in /  1015.7hPa SO 4.3mph /  6.9km/h 8mph /  12.9km/h 83% 0in /  0.0mm
07:49 71.4 °F /  21.9 °C 66 °F /  18.9 °C 30in /  1015.8hPa SO 4.3mph /  6.9km/h 7mph /  11.3km/h 83% 0in /  0.0mm
07:54 71.4 °F /  21.9 °C 65.8 °F /  18.8 °C 30in /  1015.8hPa OSO 4.3mph /  6.9km/h 7.4mph /  11.9km/h 82.6% 0in /  0.0mm
07:59 71.4 °F /  21.9 °C 65.7 °F /  18.7 °C 30in /  1015.8hPa SO 4.4mph /  7.1km/h 10mph /  16.1km/h 82% 0in /  0.0mm
08:04 71.4 °F /  21.9 °C 65.7 °F /  18.7 °C 30in /  1015.9hPa SO 4.7mph /  7.6km/h 10.4mph /  16.7km/h 82% 0in /  0.0mm
08:09 71.4 °F /  21.9 °C 65.7 °F /  18.7 °C 30in /  1015.9hPa SO 5mph /  8.1km/h 9mph /  14.5km/h 82.3% 0in /  0.0mm
08:14 71.4 °F /  21.9 °C 65.8 °F /  18.8 °C 30in /  1015.9hPa OSO 5.9mph /  9.5km/h 9mph /  14.5km/h 82.8% 0in /  0.0mm
08:19 71.4 °F /  21.9 °C 65.8 °F /  18.8 °C 30in /  1016.1hPa OSO 5.7mph /  9.2km/h 8.5mph /  13.7km/h 82.8% 0in /  0.0mm
08:24 71.4 °F /  21.9 °C 65.7 °F /  18.7 °C 30in /  1016.1hPa OSO 5.2mph /  8.4km/h 9.2mph /  14.8km/h 82.1% 0in /  0.0mm
08:29 71.4 °F /  21.9 °C 65.7 °F /  18.7 °C 30in /  1016.1hPa OSO 5.2mph /  8.4km/h 9mph /  14.5km/h 82.2% 0in /  0.0mm
08:34 71.4 °F /  21.9 °C 65.7 °F /  18.7 °C 30in /  1016.3hPa OSO 5.4mph /  8.7km/h 8.5mph /  13.7km/h 82% 0in /  0.0mm
08:39 71.6 °F /  22 °C 65.8 °F /  18.8 °C 30in /  1016.3hPa OSO 5.3mph /  8.6km/h 9mph /  14.5km/h 82% 0in /  0.0mm
08:44 71.8 °F /  22.1 °C 66 °F /  18.9 °C 30in /  1016.3hPa OSO 5.2mph /  8.4km/h 9mph /  14.5km/h 82% 0in /  0.0mm
08:49 71.8 °F /  22.1 °C 65.7 °F /  18.7 °C 30in /  1016.3hPa Oeste 4.8mph /  7.8km/h 8mph /  12.9km/h 81.3% 0in /  0.0mm
08:54 71.8 °F /  22.1 °C 65.7 °F /  18.7 °C 30in /  1016.3hPa Oeste 4mph /  6.5km/h 6.9mph /  11.1km/h 81% 0in /  0.0mm
08:59 71.8 °F /  22.1 °C 65.7 °F /  18.7 °C 30in /  1016.3hPa ONO 3.9mph /  6.3km/h 7mph /  11.3km/h 81% 0in /  0.0mm
09:04 72 °F /  22.2 °C 65.8 °F /  18.8 °C 30in /  1016.3hPa Oeste 3.6mph /  5.8km/h 5mph /  8km/h 81% 0in /  0.0mm
09:09 72.1 °F /  22.3 °C 66 °F /  18.9 °C 30in /  1016.2hPa Oeste 3.3mph /  5.3km/h 5.4mph /  8.7km/h 81% 0in /  0.0mm
09:14 72.5 °F /  22.5 °C 66 °F /  18.9 °C 30in /  1016.2hPa OSO 2.4mph /  3.9km/h 6.2mph /  10km/h 80.1% 0in /  0.0mm
09:19 72.7 °F /  22.6 °C 66.2 °F /  19 °C 30in /  1016.3hPa OSO 2.7mph /  4.3km/h 6mph /  9.7km/h 80% 0in /  0.0mm
09:24 73 °F /  22.8 °C 66.2 °F /  19 °C 30in /  1016.3hPa OSO 3.6mph /  5.8km/h 6mph /  9.7km/h 79.1% 0in /  0.0mm
09:29 73.4 °F /  23 °C 66.4 °F /  19.1 °C 30in /  1016.3hPa OSO 3.1mph /  5km/h 3.5mph /  5.6km/h 79% 0in /  0.0mm
09:34 73.9 °F /  23.3 °C 66.6 °F /  19.2 °C 30in /  1016.4hPa Oeste 1.8mph /  2.9km/h 4.7mph /  7.6km/h 78.1% 0in /  0.0mm
09:39 74.5 °F /  23.6 °C 66.7 °F /  19.3 °C 30in /  1016.4hPa SO 1.9mph /  3km/h 5.9mph /  9.5km/h 77% 0in /  0.0mm
09:44 74.8 °F /  23.8 °C 66.7 °F /  19.3 °C 30in /  1016.4hPa Oeste 2mph /  3.2km/h 6mph /  9.7km/h 76% 0in /  0.0mm
09:49 75 °F /  23.9 °C 66.7 °F /  19.3 °C 30in /  1016.5hPa OSO 2.2mph /  3.6km/h 6mph /  9.7km/h 75.7% 0in /  0.0mm
09:54 75.4 °F /  24.1 °C 66.9 °F /  19.4 °C 30in /  1016.5hPa OSO 2.9mph /  4.7km/h 6.9mph /  11.1km/h 75.1% 0in /  0.0mm
09:59 75.6 °F /  24.2 °C 66.9 °F /  19.4 °C 30in /  1016.5hPa OSO 2.9mph /  4.7km/h 7mph /  11.3km/h 74.7% 0in /  0.0mm
10:04 75.6 °F /  24.2 °C 67.1 °F /  19.5 °C 30in /  1016.5hPa SO 3.1mph /  5km/h 6mph /  9.7km/h 75% 0in /  0.0mm
10:09 75.7 °F /  24.3 °C 66.9 °F /  19.4 °C 30in /  1016.5hPa Oeste 3mph /  4.9km/h 6.2mph /  10km/h 74.1% 0in /  0.0mm
10:14 75.9 °F /  24.4 °C 66.9 °F /  19.4 °C 30in /  1016.5hPa Oeste 2.9mph /  4.7km/h 6mph /  9.7km/h 74% 0in /  0.0mm
10:19 76.3 °F /  24.6 °C 67.3 °F /  19.6 °C 30in /  1016.5hPa OSO 2.9mph /  4.7km/h 6mph /  9.7km/h 74% 0in /  0.0mm
10:24 76.5 °F /  24.7 °C 67.5 °F /  19.7 °C 30in /  1016.5hPa SO 2.9mph /  4.7km/h 6.2mph /  10km/h 73.9% 0in /  0.0mm
10:29 76.5 °F /  24.7 °C 67.3 °F /  19.6 °C 30in /  1016.5hPa OSO 3mph /  4.9km/h 6mph /  9.7km/h 73% 0in /  0.0mm
10:34 76.8 °F /  24.9 °C 67.6 °F /  19.8 °C 30in /  1016.5hPa ONO 3.6mph /  5.8km/h 6mph /  9.7km/h 73.4% 0in /  0.0mm
10:39 77.4 °F /  25.2 °C 67.6 °F /  19.8 °C 30in /  1016.5hPa OSO 3.3mph /  5.3km/h 5mph /  8km/h 72.4% 0in /  0.0mm
10:44 77.5 °F /  25.3 °C 67.6 °F /  19.8 °C 30in /  1016.5hPa ONO 2.4mph /  3.9km/h 7.4mph /  11.9km/h 71.8% 0in /  0.0mm
10:49 77.7 °F /  25.4 °C 67.6 °F /  19.8 °C 30in /  1016.5hPa OSO 2.7mph /  4.4km/h 7mph /  11.3km/h 71% 0in /  0.0mm
10:54 77.5 °F /  25.3 °C 67.3 °F /  19.6 °C 30in /  1016.4hPa ONO 3.6mph /  5.8km/h 7mph /  11.3km/h 70.6% 0in /  0.0mm
10:59 77.7 °F /  25.4 °C 66.9 °F /  19.4 °C 30in /  1016.4hPa NO 3.4mph /  5.5km/h 5.2mph /  8.4km/h 69.3% 0in /  0.0mm
11:04 78.1 °F /  25.6 °C 66.9 °F /  19.4 °C 30in /  1016.5hPa NO 2.9mph /  4.6km/h 5mph /  8km/h 68.8% 0in /  0.0mm
11:09 78.6 °F /  25.9 °C 66.7 °F /  19.3 °C 30in /  1016.5hPa ENE 2.7mph /  4.4km/h 5.9mph /  9.5km/h 67.4% 0in /  0.0mm
11:14 79.2 °F /  26.2 °C 66.7 °F /  19.3 °C 30in /  1016.5hPa ESE 2.4mph /  3.9km/h 6mph /  9.7km/h 66% 0in /  0.0mm
11:19 79.7 °F /  26.5 °C 67.1 °F /  19.5 °C 30in /  1016.5hPa ENE 2.4mph /  3.9km/h 6.9mph /  11.1km/h 65.6% 0in /  0.0mm
11:24 80.2 °F /  26.8 °C 66.7 °F /  19.3 °C 30in /  1016.4hPa ESE 2.4mph /  3.9km/h 7mph /  11.3km/h 63.4% 0in /  0.0mm
11:29 80.8 °F /  27.1 °C 66.6 °F /  19.2 °C 30in /  1016.4hPa ENE 2.5mph /  4.1km/h 8.1mph /  13km/h 62.3% 0in /  0.0mm
11:34 81 °F /  27.2 °C 66.2 °F /  19 °C 30in /  1016.4hPa NNO 2.9mph /  4.7km/h 8mph /  12.9km/h 61.1% 0in /  0.0mm
11:39 81.1 °F /  27.3 °C 66.6 °F /  19.2 °C 30in /  1016.4hPa ENE 2.9mph /  4.7km/h 8.5mph /  13.7km/h 61.1% 0in /  0.0mm
11:44 81.5 °F /  27.5 °C 66.7 °F /  19.3 °C 30in /  1016.4hPa NE 3.1mph /  5km/h 9.2mph /  14.8km/h 61% 0in /  0.0mm
11:49 81.7 °F /  27.6 °C 66.4 °F /  19.1 °C 30in /  1016.4hPa North 3mph /  4.9km/h 9mph /  14.5km/h 60.1% 0in /  0.0mm
11:54 81.7 °F /  27.6 °C 66.6 °F /  19.2 °C 30in /  1016.3hPa NE 2.9mph /  4.7km/h 9.2mph /  14.8km/h 60.3% 0in /  0.0mm
11:59 81.7 °F /  27.6 °C 66.6 °F /  19.2 °C 30in /  1016.3hPa ENE 3.2mph /  5.2km/h 9mph /  14.5km/h 60.3% 0in /  0.0mm
12:04 81.7 °F /  27.6 °C 66.6 °F /  19.2 °C 30in /  1016.3hPa ENE 4mph /  6.5km/h 11.4mph /  18.3km/h 60.3% 0in /  0.0mm
12:09 81.3 °F /  27.4 °C 66.4 °F /  19.1 °C 30in /  1016.2hPa NE 4.5mph /  7.2km/h 12mph /  19.3km/h 60.5% 0in /  0.0mm
12:14 81.5 °F /  27.5 °C 66.6 °F /  19.2 °C 30in /  1016.2hPa NE 5.9mph /  9.5km/h 12mph /  19.3km/h 60.7% 0in /  0.0mm
12:19 81.9 °F /  27.7 °C 66.4 °F /  19.1 °C 30in /  1016.2hPa NE 5.6mph /  9km/h 12mph /  19.3km/h 59.6% 0in /  0.0mm
12:24 81.9 °F /  27.7 °C 66.2 °F /  19 °C 30in /  1016.0hPa NNE 4.7mph /  7.6km/h 12mph /  19.3km/h 59% 0in /  0.0mm
12:29 82 °F /  27.8 °C 65.8 °F /  18.8 °C 30in /  1016.0hPa NE 4.8mph /  7.8km/h 10.4mph /  16.7km/h 58.2% 0in /  0.0mm
12:34 82.2 °F /  27.9 °C 65.8 °F /  18.8 °C 30in /  1016.0hPa NE 5.2mph /  8.4km/h 10.7mph /  17.2km/h 57.6% 0in /  0.0mm
12:39 82.4 °F /  28 °C 66.2 °F /  19 °C 30in /  1015.9hPa ENE 5.3mph /  8.5km/h 11mph /  17.7km/h 58% 0in /  0.0mm
12:44 82.9 °F /  28.3 °C 65.8 °F /  18.8 °C 30in /  1015.9hPa NE 5.4mph /  8.7km/h 14.5mph /  23.3km/h 56.3% 0in /  0.0mm
12:49 82.9 °F /  28.3 °C 65.3 °F /  18.5 °C 30in /  1015.9hPa NE 5.7mph /  9.1km/h 15mph /  24.1km/h 55.3% 0in /  0.0mm
12:54 82.8 °F /  28.2 °C 65.5 °F /  18.6 °C 30in /  1015.7hPa NE 6.4mph /  10.3km/h 13.7mph /  22km/h 56% 0in /  0.0mm
12:59 82.8 °F /  28.2 °C 65.8 °F /  18.8 °C 30in /  1015.7hPa NE 6.9mph /  11.1km/h 14mph /  22.5km/h 56.5% 0in /  0.0mm
13:04 82.9 °F /  28.3 °C 64.9 °F /  18.3 °C 30in /  1015.7hPa NNE 8.1mph /  13km/h 13.5mph /  21.7km/h 54.8% 0in /  0.0mm
13:09 82.9 °F /  28.3 °C 65.1 °F /  18.4 °C 30in /  1015.5hPa NE 7.9mph /  12.7km/h 15.6mph /  25.1km/h 55.1% 0in /  0.0mm
13:14 82.9 °F /  28.3 °C 65.5 °F /  18.6 °C 30in /  1015.5hPa NE 7.4mph /  11.9km/h 16.1mph /  25.9km/h 55.5% 0in /  0.0mm
13:19 83.3 °F /  28.5 °C 65.5 °F /  18.6 °C 30in /  1015.5hPa NE 7.7mph /  12.4km/h 16.1mph /  25.9km/h 55% 0in /  0.0mm
13:24 83.5 °F /  28.6 °C 65.3 °F /  18.5 °C 30in /  1015.2hPa NE 8.5mph /  13.7km/h 16mph /  25.7km/h 54.4% 0in /  0.0mm
13:29 83.7 °F /  28.7 °C 64 °F /  17.8 °C 30in /  1015.2hPa NE 8mph /  12.8km/h 13mph /  20.9km/h 51.8% 0in /  0.0mm
13:34 83.8 °F /  28.8 °C 64.6 °F /  18.1 °C 30in /  1015.2hPa NE 6.4mph /  10.3km/h 14.7mph /  23.7km/h 52.5% 0in /  0.0mm
13:39 84 °F /  28.9 °C 64.9 °F /  18.3 °C 30in /  1015.1hPa ENE 6.6mph /  10.7km/h 18.4mph /  29.6km/h 53.1% 0in /  0.0mm
13:44 84.6 °F /  29.2 °C 64.9 °F /  18.3 °C 30in /  1015.1hPa NE 7.4mph /  11.9km/h 18mph /  29km/h 51.9% 0in /  0.0mm
13:49 84.9 °F /  29.4 °C 64.9 °F /  18.3 °C 30in /  1015.1hPa NE 7.4mph /  11.9km/h 14mph /  22.5km/h 51.2% 0in /  0.0mm
13:54 84.9 °F /  29.4 °C 65.3 °F /  18.5 °C 30in /  1015.0hPa ENE 7.4mph /  11.9km/h 14mph /  22.5km/h 52.1% 0in /  0.0mm
13:59 84.7 °F /  29.3 °C 65.3 °F /  18.5 °C 30in /  1015.0hPa NE 7.4mph /  11.9km/h 14mph /  22.5km/h 52% 0in /  0.0mm
14:04 84.9 °F /  29.4 °C 65.5 °F /  18.6 °C 30in /  1015.0hPa ENE 7.4mph /  11.9km/h 14mph /  22.5km/h 52.4% 0in /  0.0mm
14:09 84.7 °F /  29.3 °C 64.8 °F /  18.2 °C 30in /  1015.0hPa NE 7.4mph /  11.9km/h 14mph /  22.5km/h 51.1% 0in /  0.0mm
14:14 84.6 °F /  29.2 °C 64.9 °F /  18.3 °C 30in /  1015.0hPa ENE 7.4mph /  11.9km/h 14mph /  22.5km/h 52.1% 0in /  0.0mm
14:19 84.7 °F /  29.3 °C 65.3 °F /  18.5 °C 30in /  1015.0hPa NE 7.4mph /  11.9km/h 14mph /  22.5km/h 52.5% 0in /  0.0mm
14:24 84.9 °F /  29.4 °C 65.5 °F /  18.6 °C 30in /  1014.9hPa Este 7.4mph /  11.9km/h 14mph /  22.5km/h 52.3% 0in /  0.0mm
14:29 85.1 °F /  29.5 °C 65.1 °F /  18.4 °C 30in /  1014.9hPa ENE 7.3mph /  11.7km/h 15mph /  24.1km/h 51.3% 0in /  0.0mm
14:34 85.3 °F /  29.6 °C 65.5 °F /  18.6 °C 30in /  1014.9hPa NE 6.9mph /  11.1km/h 15.2mph /  24.5km/h 51.5% 0in /  0.0mm
14:39 85.3 °F /  29.6 °C 64.2 °F /  17.9 °C 30in /  1014.8hPa ENE 7.3mph /  11.7km/h 16.1mph /  25.9km/h 49.6% 0in /  0.0mm
14:44 85.1 °F /  29.5 °C 63.9 °F /  17.7 °C 30in /  1014.8hPa NE 8.5mph /  13.7km/h 17.3mph /  27.8km/h 49.3% 0in /  0.0mm
14:49 84.9 °F /  29.4 °C 63.3 °F /  17.4 °C 30in /  1014.8hPa Este 8.7mph /  14km/h 17mph /  27.4km/h 48.6% 0in /  0.0mm
14:54 85.3 °F /  29.6 °C 63.1 °F /  17.3 °C 30in /  1014.7hPa ENE 9.2mph /  14.8km/h 16mph /  25.7km/h 47.4% 0in /  0.0mm
14:59 85.6 °F /  29.8 °C 62.8 °F /  17.1 °C 30in /  1014.7hPa NE 8.8mph /  14.1km/h 15mph /  24.1km/h 46.6% 0in /  0.0mm
15:04 85.6 °F /  29.8 °C 63.1 °F /  17.3 °C 30in /  1014.7hPa Este 7.6mph /  12.2km/h 15mph /  24.1km/h 46.9% 0in /  0.0mm
15:09 85.6 °F /  29.8 °C 63 °F /  17.2 °C 30in /  1014.7hPa Este 7.6mph /  12.2km/h 15mph /  24.1km/h 46.7% 0in /  0.0mm
15:14 85.6 °F /  29.8 °C 63.7 °F /  17.6 °C 30in /  1014.7hPa Este 7.4mph /  11.9km/h 13.8mph /  22.2km/h 47.9% 0in /  0.0mm
15:19 85.6 °F /  29.8 °C 64 °F /  17.8 °C 30in /  1014.7hPa ENE 7.4mph /  11.9km/h 15mph /  24.1km/h 48.3% 0in /  0.0mm
15:24 85.8 °F /  29.9 °C 64.4 °F /  18 °C 30in /  1014.5hPa ENE 7.4mph /  11.9km/h 15.6mph /  25.1km/h 48.8% 0in /  0.0mm
15:29 85.6 °F /  29.8 °C 64 °F /  17.8 °C 30in /  1014.5hPa NE 7.6mph /  12.3km/h 16.1mph /  25.9km/h 48.6% 0in /  0.0mm
15:34 85.5 °F /  29.7 °C 63.5 °F /  17.5 °C 30in /  1014.5hPa NE 8.5mph /  13.7km/h 16.1mph /  25.9km/h 48.1% 0in /  0.0mm
15:39 85.6 °F /  29.8 °C 63.5 °F /  17.5 °C 30in /  1014.3hPa NNE 8.9mph /  14.4km/h 17.3mph /  27.8km/h 47.7% 0in /  0.0mm
15:44 85.5 °F /  29.7 °C 64.4 °F /  18 °C 30in /  1014.3hPa NE 10.2mph /  16.4km/h 17mph /  27.4km/h 49.5% 0in /  0.0mm
15:49 85.6 °F /  29.8 °C 64.8 °F /  18.2 °C 30in /  1014.3hPa ENE 9.8mph /  15.7km/h 15.9mph /  25.6km/h 49.7% 0in /  0.0mm
15:54 85.6 °F /  29.8 °C 64.4 °F /  18 °C 30in /  1014.2hPa NE 8.5mph /  13.7km/h 18.4mph /  29.6km/h 49.2% 0in /  0.0mm
15:59 85.5 °F /  29.7 °C 64.2 °F /  17.9 °C 30in /  1014.2hPa NE 8.9mph /  14.4km/h 18mph /  29km/h 49.1% 0in /  0.0mm
16:04 85.6 °F /  29.8 °C 64.6 °F /  18.1 °C 30in /  1014.2hPa ENE 10mph /  16.1km/h 15mph /  24.1km/h 49.6% 0in /  0.0mm
16:09 86 °F /  30 °C 64.6 °F /  18.1 °C 30in /  1014.2hPa NE 9.3mph /  14.9km/h 16.3mph /  26.2km/h 48.9% 0in /  0.0mm
16:14 85.8 °F /  29.9 °C 64.2 °F /  17.9 °C 30in /  1014.2hPa NE 6.9mph /  11.1km/h 16.1mph /  25.9km/h 48.4% 0in /  0.0mm
16:19 85.8 °F /  29.9 °C 64.6 °F /  18.1 °C 30in /  1014.2hPa NE 7.3mph /  11.8km/h 18.4mph /  29.6km/h 49% 0in /  0.0mm
16:24 85.8 °F /  29.9 °C 64.4 °F /  18 °C 29.9in /  1014.1hPa NE 8.5mph /  13.7km/h 18.5mph /  29.8km/h 48.9% 0in /  0.0mm
16:29 85.8 °F /  29.9 °C 64.6 °F /  18.1 °C 29.9in /  1014.1hPa NE 8.5mph /  13.7km/h 19mph /  30.6km/h 49.3% 0in /  0.0mm
16:34 85.6 °F /  29.8 °C 64 °F /  17.8 °C 29.9in /  1014.1hPa NE 8.5mph /  13.7km/h 16mph /  25.7km/h 48.7% 0in /  0.0mm
16:39 85.6 °F /  29.8 °C 64.4 °F /  18 °C 29.9in /  1014.0hPa NE 8.2mph /  13.2km/h 14mph /  22.5km/h 49% 0in /  0.0mm
16:44 86 °F /  30 °C 64.2 °F /  17.9 °C 29.9in /  1014.0hPa ENE 7.4mph /  11.9km/h 17.3mph /  27.8km/h 48.3% 0in /  0.0mm
16:49 85.8 °F /  29.9 °C 63.9 °F /  17.7 °C 29.9in /  1014.0hPa NE 7.7mph /  12.4km/h 17mph /  27.4km/h 47.9% 0in /  0.0mm
16:54 85.6 °F /  29.8 °C 64 °F /  17.8 °C 29.9in /  1013.9hPa NE 8.5mph /  13.7km/h 16.1mph /  25.9km/h 48.7% 0in /  0.0mm
16:59 85.6 °F /  29.8 °C 65.3 °F /  18.5 °C 29.9in /  1013.9hPa ENE 8.6mph /  13.8km/h 15mph /  24.1km/h 51% 0in /  0.0mm
17:04 85.6 °F /  29.8 °C 64.2 °F /  17.9 °C 29.9in /  1013.9hPa NE 8.7mph /  14km/h 15.2mph /  24.5km/h 48.8% 0in /  0.0mm
17:09 85.6 °F /  29.8 °C 64.8 °F /  18.2 °C 29.9in /  1013.9hPa ENE 8.6mph /  13.9km/h 16mph /  25.7km/h 50% 0in /  0.0mm
17:14 85.6 °F /  29.8 °C 64 °F /  17.8 °C 29.9in /  1013.9hPa NE 8.5mph /  13.7km/h 18.4mph /  29.6km/h 48.3% 0in /  0.0mm
17:19 85.5 °F /  29.7 °C 64 °F /  17.8 °C 29.9in /  1013.9hPa NE 8.9mph /  14.3km/h 18mph /  29km/h 48.8% 0in /  0.0mm
17:24 85.5 °F /  29.7 °C 65.1 °F /  18.4 °C 29.9in /  1013.8hPa NE 10mph /  16.1km/h 18.4mph /  29.6km/h 50.6% 0in /  0.0mm
17:29 85.1 °F /  29.5 °C 64.6 °F /  18.1 °C 29.9in /  1013.8hPa NE 10.1mph /  16.2km/h 18.5mph /  29.8km/h 50.4% 0in /  0.0mm
17:34 84.9 °F /  29.4 °C 65.3 °F /  18.5 °C 29.9in /  1013.8hPa NE 10.2mph /  16.4km/h 19mph /  30.6km/h 52% 0in /  0.0mm
17:39 85.3 °F /  29.6 °C 66 °F /  18.9 °C 29.9in /  1013.8hPa NE 9.9mph /  16km/h 16mph /  25.7km/h 52.7% 0in /  0.0mm
17:44 84.9 °F /  29.4 °C 64.6 °F /  18.1 °C 29.9in /  1013.8hPa NE 9.2mph /  14.8km/h 18.4mph /  29.6km/h 50.7% 0in /  0.0mm
17:49 84.7 °F /  29.3 °C 65.3 °F /  18.5 °C 29.9in /  1013.8hPa ENE 9.4mph /  15.2km/h 18.4mph /  29.6km/h 52.1% 0in /  0.0mm
17:54 84.9 °F /  29.4 °C 66.4 °F /  19.1 °C 29.9in /  1013.8hPa NE 10.2mph /  16.4km/h 18mph /  29km/h 54% 0in /  0.0mm
17:59 84.9 °F /  29.4 °C 65.7 °F /  18.7 °C 29.9in /  1013.8hPa ENE 9.8mph /  15.7km/h 17.3mph /  27.8km/h 52.4% 0in /  0.0mm
18:04 84.9 °F /  29.4 °C 66.6 °F /  19.2 °C 29.9in /  1013.8hPa ENE 8.7mph /  14km/h 17mph /  27.4km/h 54.3% 0in /  0.0mm
18:09 84.7 °F /  29.3 °C 66.7 °F /  19.3 °C 29.9in /  1013.8hPa ENE 8.6mph /  13.9km/h 16.3mph /  26.2km/h 54.7% 0in /  0.0mm
18:14 84.7 °F /  29.3 °C 67.3 °F /  19.6 °C 29.9in /  1013.8hPa ENE 8.5mph /  13.7km/h 16mph /  25.7km/h 55.9% 0in /  0.0mm
18:19 84.9 °F /  29.4 °C 66.9 °F /  19.4 °C 29.9in /  1013.8hPa NE 8mph /  12.8km/h 14mph /  22.5km/h 54.8% 0in /  0.0mm
18:24 84.7 °F /  29.3 °C 67.3 °F /  19.6 °C 29.9in /  1013.7hPa NE 6.4mph /  10.3km/h 16.3mph /  26.2km/h 55.9% 0in /  0.0mm
18:29 84.2 °F /  29 °C 67.3 °F /  19.6 °C 29.9in /  1013.7hPa NE 7.1mph /  11.5km/h 16.3mph /  26.2km/h 56.8% 0in /  0.0mm
18:34 83.8 °F /  28.8 °C 67.1 °F /  19.5 °C 29.9in /  1013.7hPa NE 9.2mph /  14.8km/h 16.3mph /  26.2km/h 57.4% 0in /  0.0mm
18:39 83.7 °F /  28.7 °C 67.5 °F /  19.7 °C 29.9in /  1013.7hPa NE 9.2mph /  14.8km/h 16mph /  25.7km/h 58.4% 0in /  0.0mm
18:44 83.5 °F /  28.6 °C 67.3 °F /  19.6 °C 29.9in /  1013.7hPa NE 9.2mph /  14.8km/h 15mph /  24.1km/h 58.3% 0in /  0.0mm
18:49 83.5 °F /  28.6 °C 67.1 °F /  19.5 °C 29.9in /  1013.7hPa ENE 9mph /  14.5km/h 17.5mph /  28.2km/h 58% 0in /  0.0mm
18:54 83.5 °F /  28.6 °C 66.9 °F /  19.4 °C 29.9in /  1013.6hPa NE 8.5mph /  13.7km/h 17mph /  27.4km/h 57.7% 0in /  0.0mm
18:59 83.1 °F /  28.4 °C 66.2 °F /  19 °C 29.9in /  1013.6hPa NE 8.4mph /  13.5km/h 17.3mph /  27.8km/h 56.7% 0in /  0.0mm
19:04 83.1 °F /  28.4 °C 66.4 °F /  19.1 °C 29.9in /  1013.7hPa NE 8.1mph /  13km/h 18.4mph /  29.6km/h 57.1% 0in /  0.0mm
19:09 82.8 °F /  28.2 °C 66.7 °F /  19.3 °C 29.9in /  1013.7hPa NE 8.8mph /  14.1km/h 18.4mph /  29.6km/h 58.4% 0in /  0.0mm
19:14 82.6 °F /  28.1 °C 66.6 °F /  19.2 °C 29.9in /  1013.7hPa NE 10.7mph /  17.2km/h 18.4mph /  29.6km/h 58.6% 0in /  0.0mm
19:19 82.6 °F /  28.1 °C 66.9 °F /  19.4 °C 29.9in /  1013.7hPa NE 10.4mph /  16.8km/h 16.3mph /  26.2km/h 59.1% 0in /  0.0mm
19:24 82.4 °F /  28 °C 66.7 °F /  19.3 °C 29.9in /  1013.7hPa NE 9.7mph /  15.6km/h 17.5mph /  28.2km/h 59.3% 0in /  0.0mm
19:29 82.2 °F /  27.9 °C 66.7 °F /  19.3 °C 29.9in /  1013.7hPa NE 9.6mph /  15.4km/h 17mph /  27.4km/h 59.7% 0in /  0.0mm
19:34 82 °F /  27.8 °C 66.9 °F /  19.4 °C 29.9in /  1013.7hPa ENE 9.2mph /  14.8km/h 16mph /  25.7km/h 60.3% 0in /  0.0mm
19:39 82 °F /  27.8 °C 67.1 °F /  19.5 °C 29.9in /  1013.7hPa NE 8.8mph /  14.1km/h 15mph /  24.1km/h 60.7% 0in /  0.0mm
19:44 82 °F /  27.8 °C 67.1 °F /  19.5 °C 29.9in /  1013.7hPa ENE 7.6mph /  12.2km/h 15mph /  24.1km/h 60.4% 0in /  0.0mm
19:49 81.9 °F /  27.7 °C 66.6 °F /  19.2 °C 29.9in /  1013.8hPa ENE 7.4mph /  11.9km/h 15mph /  24.1km/h 60% 0in /  0.0mm
19:54 81.7 °F /  27.6 °C 66.7 °F /  19.3 °C 29.9in /  1013.8hPa NE 6.9mph /  11.1km/h 17.3mph /  27.8km/h 60.6% 0in /  0.0mm
19:59 81.3 °F /  27.4 °C 66.4 °F /  19.1 °C 29.9in /  1013.8hPa NE 7.1mph /  11.4km/h 17.3mph /  27.8km/h 60.3% 0in /  0.0mm
20:04 81.3 °F /  27.4 °C 66.7 °F /  19.3 °C 29.9in /  1013.9hPa NE 7.6mph /  12.2km/h 13.8mph /  22.2km/h 61.5% 0in /  0.0mm
20:09 81 °F /  27.2 °C 66.7 °F /  19.3 °C 29.9in /  1013.9hPa NE 7.7mph /  12.4km/h 14mph /  22.5km/h 62% 0in /  0.0mm
20:14 80.8 °F /  27.1 °C 67.1 °F /  19.5 °C 29.9in /  1013.9hPa NE 8.1mph /  13km/h 14mph /  22.5km/h 63.2% 0in /  0.0mm
20:19 80.8 °F /  27.1 °C 67.5 °F /  19.7 °C 29.9in /  1014.0hPa NE 7.8mph /  12.5km/h 14mph /  22.5km/h 64% 0in /  0.0mm
20:24 80.4 °F /  26.9 °C 67.5 °F /  19.7 °C 29.9in /  1014.0hPa NE 6.9mph /  11.1km/h 13mph /  20.9km/h 64.5% 0in /  0.0mm
20:29 80.2 °F /  26.8 °C 67.8 °F /  19.9 °C 29.9in /  1014.0hPa NE 7.1mph /  11.4km/h 13mph /  20.9km/h 65.9% 0in /  0.0mm
20:34 80.1 °F /  26.7 °C 67.6 °F /  19.8 °C 29.9in /  1014.0hPa NE 7.6mph /  12.2km/h 13.7mph /  22km/h 66.1% 0in /  0.0mm
20:39 79.9 °F /  26.6 °C 67.8 °F /  19.9 °C 29.9in /  1014.0hPa NE 7.6mph /  12.2km/h 14mph /  22.5km/h 66.9% 0in /  0.0mm
20:44 79.3 °F /  26.3 °C 67.8 °F /  19.9 °C 29.9in /  1014.0hPa NE 7.6mph /  12.2km/h 16.3mph /  26.2km/h 67.8% 0in /  0.0mm
20:49 79.3 °F /  26.3 °C 68 °F /  20 °C 29.9in /  1014.0hPa NE 7.9mph /  12.7km/h 16mph /  25.7km/h 68.5% 0in /  0.0mm
20:54 79.2 °F /  26.2 °C 68 °F /  20 °C 29.9in /  1014.0hPa NE 8.7mph /  14km/h 14mph /  22.5km/h 69% 0in /  0.0mm
20:59 79 °F /  26.1 °C 67.8 °F /  19.9 °C 29.9in /  1014.0hPa NE 8.2mph /  13.2km/h 12.7mph /  20.4km/h 69% 0in /  0.0mm
21:04 78.6 °F /  25.9 °C 68 °F /  20 °C 29.9in /  1014.0hPa NE 6.9mph /  11.1km/h 13mph /  20.9km/h 69.7% 0in /  0.0mm
21:09 78.6 °F /  25.9 °C 68 °F /  20 °C 29.9in /  1014.0hPa NE 6.6mph /  10.7km/h 12mph /  19.3km/h 70.2% 0in /  0.0mm
21:14 78.4 °F /  25.8 °C 68.2 °F /  20.1 °C 29.9in /  1014.0hPa NE 5.9mph /  9.5km/h 11.8mph /  19km/h 71% 0in /  0.0mm
21:19 78.3 °F /  25.7 °C 68.4 °F /  20.2 °C 30in /  1014.3hPa ENE 6mph /  9.6km/h 12.7mph /  20.4km/h 71.8% 0in /  0.0mm
21:24 78.1 °F /  25.6 °C 68.4 °F /  20.2 °C 30in /  1014.3hPa NE 6.2mph /  10km/h 13mph /  20.9km/h 72% 0in /  0.0mm
21:29 78.1 °F /  25.6 °C 68.5 °F /  20.3 °C 30in /  1014.3hPa NE 6mph /  9.7km/h 9.2mph /  14.8km/h 72.5% 0in /  0.0mm
21:34 77.9 °F /  25.5 °C 68.5 °F /  20.3 °C 30in /  1014.3hPa NE 5.4mph /  8.7km/h 13mph /  20.9km/h 73% 0in /  0.0mm
21:39 77.5 °F /  25.3 °C 68.7 °F /  20.4 °C 30in /  1014.3hPa NE 6.1mph /  9.8km/h 13mph /  20.9km/h 73.9% 0in /  0.0mm
21:44 77.5 °F /  25.3 °C 68.7 °F /  20.4 °C 30in /  1014.3hPa NE 8.1mph /  13km/h 12mph /  19.3km/h 74.1% 0in /  0.0mm
21:49 77.5 °F /  25.3 °C 69.1 °F /  20.6 °C 30in /  1014.3hPa NE 8mph /  12.8km/h 12mph /  19.3km/h 75% 0in /  0.0mm
21:54 77.4 °F /  25.2 °C 68.9 °F /  20.5 °C 30in /  1014.3hPa NE 7.6mph /  12.2km/h 11mph /  17.7km/h 75.2% 0in /  0.0mm
21:59 77.4 °F /  25.2 °C 69.3 °F /  20.7 °C 30in /  1014.3hPa NE 7.1mph /  11.4km/h 10mph /  16.1km/h 76% 0in /  0.0mm
22:04 77.4 °F /  25.2 °C 69.1 °F /  20.6 °C 30in /  1014.5hPa NE 5.9mph /  9.5km/h 9mph /  14.5km/h 76% 0in /  0.0mm
22:09 77.2 °F /  25.1 °C 69.1 °F /  20.6 °C 30in /  1014.5hPa NE 5.6mph /  9km/h 8.1mph /  13km/h 76.1% 0in /  0.0mm
22:14 77.2 °F /  25.1 °C 69.4 °F /  20.8 °C 30in /  1014.5hPa ENE 4.7mph /  7.6km/h 8mph /  12.9km/h 77% 0in /  0.0mm
22:19 77.2 °F /  25.1 °C 69.3 °F /  20.7 °C 30in /  1015.0hPa NE 4.4mph /  7.1km/h 7.4mph /  11.9km/h 77% 0in /  0.0mm
22:24 77.2 °F /  25.1 °C 69.3 °F /  20.7 °C 30in /  1015.0hPa ENE 3.6mph /  5.8km/h 7mph /  11.3km/h 77% 0in /  0.0mm
22:29 77 °F /  25 °C 69.3 °F /  20.7 °C 30in /  1015.0hPa ENE 3.4mph /  5.5km/h 5.2mph /  8.4km/h 77% 0in /  0.0mm
22:34 76.8 °F /  24.9 °C 69.1 °F /  20.6 °C 30in /  1015.2hPa NE 2.9mph /  4.7km/h 5.9mph /  9.5km/h 77.1% 0in /  0.0mm
22:39 76.8 °F /  24.9 °C 69.4 °F /  20.8 °C 30in /  1015.2hPa ENE 3mph /  4.9km/h 6mph /  9.7km/h 78% 0in /  0.0mm
22:44 76.6 °F /  24.8 °C 69.3 °F /  20.7 °C 30in /  1015.2hPa NE 3.6mph /  5.8km/h 6mph /  9.7km/h 78% 0in /  0.0mm
22:49 76.6 °F /  24.8 °C 69.3 °F /  20.7 °C 30in /  1015.3hPa NE 3.4mph /  5.5km/h 5.9mph /  9.5km/h 78% 0in /  0.0mm
22:54 76.6 °F /  24.8 °C 69.3 °F /  20.7 °C 30in /  1015.3hPa NE 2.9mph /  4.7km/h 6.2mph /  10km/h 78% 0in /  0.0mm
22:59 76.6 °F /  24.8 °C 69.3 °F /  20.7 °C 30in /  1015.3hPa NE 2.9mph /  4.7km/h 6mph /  9.7km/h 78% 0in /  0.0mm
23:04 76.6 °F /  24.8 °C 69.3 °F /  20.7 °C 30in /  1015.3hPa NE 3.1mph /  5km/h 5mph /  8km/h 78% 0in /  0.0mm
23:09 76.6 °F /  24.8 °C 69.3 °F /  20.7 °C 30in /  1015.2hPa NE 2.9mph /  4.7km/h 5mph /  8km/h 78% 0in /  0.0mm
23:14 76.6 °F /  24.8 °C 69.3 °F /  20.7 °C 30in /  1015.2hPa NE 2.4mph /  3.9km/h 5mph /  8km/h 78% 0in /  0.0mm
23:19 76.6 °F /  24.8 °C 69.3 °F /  20.7 °C 30in /  1015.2hPa NE 2.3mph /  3.7km/h 5mph /  8km/h 78% 0in /  0.0mm
23:24 76.6 °F /  24.8 °C 69.3 °F /  20.7 °C 30in /  1015.2hPa North 2mph /  3.2km/h 3mph /  4.8km/h 78% 0in /  0.0mm
23:29 76.5 °F /  24.7 °C 69.3 °F /  20.7 °C 30in /  1015.2hPa Oeste 1.5mph /  2.4km/h   78.1% 0in /  0.0mm
23:34 76.5 °F /  24.7 °C 69.4 °F /  20.8 °C 30in /  1015.2hPa Calm     79% 0in /  0.0mm
23:39 76.5 °F /  24.7 °C 69.4 °F /  20.8 °C 30in /  1015.2hPa Calm     79% 0in /  0.0mm
23:44 76.5 °F /  24.7 °C 69.4 °F /  20.8 °C 30in /  1015.2hPa Calm     79% 0in /  0.0mm
23:49 76.5 °F /  24.7 °C 69.4 °F /  20.8 °C 30in /  1015.2hPa Calm   3.6mph /  5.8km/h 79% 0in /  0.0mm
23:54 76.5 °F /  24.7 °C 69.4 °F /  20.8 °C 30in /  1015.1hPa Calm   4mph /  6.4km/h 79% 0in /  0.0mm
23:59 76.5 °F /  24.7 °C 69.4 °F /  20.8 °C 30in /  1015.1hPa Calm   4mph /  6.4km/h 79% 0in /  0.0mm
Murcia-Puente Tocinos, España
Compliments of Weather Underground - 3 mb

La estación de MeteoMurcia.com, publica sus datos en los siguientes proyectos:

Weather Underground PWS IMURCIAP2 Meteoclimatic www.awekas.at

W3Counter
Web Analytics